WetterOnline ( https://www.wetteronline.de )

Wetter aktuell PLZ Bereich 53547

Aktuelles Wetter: Andernach (75m)

6-stündlich | Neueste Meldungen
Ortszeit Temperatur Wetter
Mi, 29.01. 19:00 5.4° C wolkig
Mi, 29.01. 13:00 7.2° C bewölkt
Mi, 29.01. 7:00 4.5° C bewölkt
Mi, 29.01. 1:00 4.2° C bewölkt
Di, 28.01. 19:00 4.8° C bedeckt
Di, 28.01. 13:00 6.9° C bewölkt
Di, 28.01. 7:00 5.9° C wolkig
Di, 28.01. 1:00 7.9° C bewölkt
Ortszeit Temperatur Wetter
Mi, 29.01. 19:30 5.3° C wolkig
Mi, 29.01. 19:20 5.3° C wolkig
Mi, 29.01. 19:10 5.3° C wolkig
Mi, 29.01. 19:00 5.4° C wolkig
Mi, 29.01. 18:50 5.4° C wolkig
Mi, 29.01. 18:40 5.3° C wolkig
Mi, 29.01. 18:30 5.5° C wolkig
Mi, 29.01. 18:00 6.2° C wolkenlos
Mi, 29.01. 17:30 6.7° C wolkenlos
Mi, 29.01. 17:00 7.0° C wolkig
Mi, 29.01. 16:30 7.6° C bewölkt
Ortszeit Relative Feuchte Sichtweite
Mi, 29.01. 19:00 61% 40 km
Mi, 29.01. 13:00 57% 35 km
Mi, 29.01. 7:00 72% 40 km
Mi, 29.01. 1:00 77% 50 km
Di, 28.01. 19:00 63% 60 km
Di, 28.01. 13:00 62% 55 km
Di, 28.01. 7:00 79% 65 km
Di, 28.01. 1:00 80% >70 km
Ortszeit Relative Feuchte Sichtweite
Mi, 29.01. 19:30 62% 40 km
Mi, 29.01. 19:20 62% -
Mi, 29.01. 19:10 62% -
Mi, 29.01. 19:00 61% 40 km
Mi, 29.01. 18:50 61% -
Mi, 29.01. 18:40 61% -
Mi, 29.01. 18:30 61% 35 km
Mi, 29.01. 18:00 57% 45 km
Mi, 29.01. 17:30 55% 40 km
Mi, 29.01. 17:00 54% 40 km
Mi, 29.01. 16:30 51% 40 km
Ortszeit Niederschlagsmenge Niederschlagsart
Mi, 29.01. 19:00 0.1 l/m2 in 12 Std. Regen
Mi, 29.01. 13:00 0.1 l/m2 in 6 Std. Regen
Mi, 29.01. 7:00 0.1 l/m2 in 12 Std. Regen
Mi, 29.01. 1:00 0.0 l/m2 in 6 Std. -
Di, 28.01. 19:00 2 l/m2 in 12 Std. Regen
Di, 28.01. 13:00 2 l/m2 in 6 Std. Regen
Di, 28.01. 7:00 0.8 l/m2 in 12 Std. Regen
Di, 28.01. 1:00 0.1 l/m2 in 6 Std. Regen
Ortszeit Niederschlagsmenge Niederschlagsart
Mi, 29.01. 19:30 0.0 l/m2 in 1 Std. -
Mi, 29.01. 19:20 keine Meldung -
Mi, 29.01. 19:10 keine Meldung -
Mi, 29.01. 19:00 0.0 l/m2 in 1 Std. Regen
Mi, 29.01. 18:50 keine Meldung -
Mi, 29.01. 18:40 keine Meldung -
Mi, 29.01. 18:30 0.0 l/m2 in 1 Std. -
Mi, 29.01. 18:00 0.0 l/m2 in 1 Std. -
Mi, 29.01. 17:30 0.0 l/m2 in 1 Std. -
Mi, 29.01. 17:00 0.0 l/m2 in 1 Std. -
Mi, 29.01. 16:30 0.0 l/m2 in 1 Std. -
Ortszeit Stärke Spitze Richtung
km/h Bft. km/h Grad Sektor
Mi, 29.01. 19:00 7 2 47 260° W
Mi, 29.01. 13:00 19 3 37 270° W
Mi, 29.01. 7:00 7 2 30 230° SW
Mi, 29.01. 1:00 13 3 43 230° SW
Di, 28.01. 19:00 14 3 50 250° W
Di, 28.01. 13:00 18 3 65 250° W
Di, 28.01. 7:00 22 4 43 220° SW
Di, 28.01. 1:00 11 2 31 190° S
Ortszeit Stärke Spitze Richtung
km/h Bft. km/h Grad Sektor
Mi, 29.01. 19:30 7 2 14 250° W
Mi, 29.01. 19:20 7 2 - 250° W
Mi, 29.01. 19:10 7 2 - 260° W
Mi, 29.01. 19:00 7 2 14 260° W
Mi, 29.01. 18:50 7 2 - 260° W
Mi, 29.01. 18:40 7 2 - 260° W
Mi, 29.01. 18:30 7 2 14 260° W
Mi, 29.01. 18:00 9 2 30 290° W
Mi, 29.01. 17:30 13 3 30 280° W
Mi, 29.01. 17:00 13 3 35 280° W
Mi, 29.01. 16:30 19 3 35 280° W
Ortszeit Untergrenze Bedeckung Gattung
total tief tief mittel hoch
Mi, 29.01. 19:00 8400 m 8/8 0/8 - - -
Mi, 29.01. 13:00 1230 m 7/8 7/8 - - -
Mi, 29.01. 7:00 990 m 8/8 7/8 - - -
Mi, 29.01. 1:00 1020 m 8/8 7/8 - - -
Di, 28.01. 19:00 3600 m 8/8 8/8 - - -
Di, 28.01. 13:00 1080 m 7/8 7/8 - - -
Di, 28.01. 7:00 1500 m 8/8 3/8 - - -
Di, 28.01. 1:00 570 m 7/8 7/8 - - -
Ortszeit Bedeckungsgrad in Achtel und Wolkenuntergrenze
Mi, 29.01. 19:30 8(7800m)
Mi, 29.01. 19:20 8(7800m)
Mi, 29.01. 19:10 8(7800m)
Mi, 29.01. 19:00 8(8400m) 8(8700m)
Mi, 29.01. 18:50 8(8400m) 8(8700m)
Mi, 29.01. 18:40 8(8400m)
Mi, 29.01. 18:30 7(8700m)
Mi, 29.01. 18:00 2(9000m)
Mi, 29.01. 17:30 keine Wolken
Mi, 29.01. 17:00 1(1500m) 7(6900m) 7(7800m)
Mi, 29.01. 16:30 7(1500m) 7(7200m)
Ortszeit Luftdruck NN (hPa) Tendenz (hPa in 3 Std.)
Mi, 29.01. 19:00 1014 + 2,7
Mi, 29.01. 13:00 1009 + 0,8
Mi, 29.01. 7:00 1007 + 2,0
Mi, 29.01. 1:00 1002 - 0,5
Di, 28.01. 19:00 1002 + 2,2
Di, 28.01. 13:00 998 + 2,9
Di, 28.01. 7:00 995 - 2,7
Di, 28.01. 1:00 998 - 4,0
Ortszeit Luftdruck NN (hPa) Tendenz (hPa in 3 Std.)
Mi, 29.01. 19:30 1014 + 2,8
Mi, 29.01. 19:20 1014 keine Meldung
Mi, 29.01. 19:10 1014 keine Meldung
Mi, 29.01. 19:00 1014 + 2,7
Mi, 29.01. 18:50 1014 keine Meldung
Mi, 29.01. 18:40 1014 keine Meldung
Mi, 29.01. 18:30 1013 + 2,9
Mi, 29.01. 18:00 1013 + 2,7
Mi, 29.01. 17:30 1012 + 2,4
Mi, 29.01. 17:00 1012 + 2,5
Mi, 29.01. 16:30 1011 + 2,0
Ortszeit Schneehöhe (cm)
Mi, 29.01. 19:00 0
Mi, 29.01. 13:00 0
Mi, 29.01. 7:00 0
Mi, 29.01. 1:00 0
Di, 28.01. 19:00 0
Di, 28.01. 13:00 0
Di, 28.01. 7:00 0
Di, 28.01. 1:00 0
Ortszeit Schneehöhe (cm)
Mi, 29.01. 19:30 0
Mi, 29.01. 19:20 0
Mi, 29.01. 19:10 0
Mi, 29.01. 19:00 0
Mi, 29.01. 18:50 0
Mi, 29.01. 18:40 0
Mi, 29.01. 18:30 0
Mi, 29.01. 18:00 0
Mi, 29.01. 17:30 0
Mi, 29.01. 17:00 0
Mi, 29.01. 16:30 0
Link zu dieser Seite / Seite empfehlen

Das Wetter in ...